sensor_id;sensor_type;location;lat;lon;timestamp;P1;durP1;ratioP1;P2;durP2;ratioP2
27367;SDS011;14839;48.106;11.618;2024-01-30T05:02:10;0.80;;;0.50;;
27367;SDS011;14839;48.106;11.618;2024-01-30T05:04:36;1.43;;;0.80;;
27367;SDS011;14839;48.106;11.618;2024-01-30T05:07:02;0.50;;;0.50;;
27367;SDS011;14839;48.106;11.618;2024-01-30T05:09:27;3.23;;;0.60;;
27367;SDS011;14839;48.106;11.618;2024-01-30T05:11:53;0.70;;;0.70;;
27367;SDS011;14839;48.106;11.618;2024-01-30T05:14:19;2.20;;;0.70;;
27367;SDS011;14839;48.106;11.618;2024-01-30T05:16:44;1.13;;;0.77;;
27367;SDS011;14839;48.106;11.618;2024-01-30T05:19:12;2.63;;;1.07;;
27367;SDS011;14839;48.106;11.618;2024-01-30T05:21:39;1.00;;;0.80;;
27367;SDS011;14839;48.106;11.618;2024-01-30T05:24:05;1.03;;;0.70;;
27367;SDS011;14839;48.106;11.618;2024-01-30T05:26:30;3.43;;;0.80;;
27367;SDS011;14839;48.106;11.618;2024-01-30T05:28:56;0.73;;;0.60;;
27367;SDS011;14839;48.106;11.618;2024-01-30T05:31:22;3.00;;;0.83;;
27367;SDS011;14839;48.106;11.618;2024-01-30T05:33:47;1.23;;;0.60;;
27367;SDS011;14839;48.106;11.618;2024-01-30T05:36:13;1.00;;;0.57;;
27367;SDS011;14839;48.106;11.618;2024-01-30T05:38:39;0.70;;;0.50;;
27367;SDS011;14839;48.106;11.618;2024-01-30T05:41:05;0.67;;;0.60;;
27367;SDS011;14839;48.106;11.618;2024-01-30T05:43:31;0.93;;;0.60;;
27367;SDS011;14839;48.106;11.618;2024-01-30T05:45:56;1.40;;;0.50;;
27367;SDS011;14839;48.106;11.618;2024-01-30T05:48:22;0.63;;;0.50;;
27367;SDS011;14839;48.106;11.618;2024-01-30T05:50:47;0.70;;;0.40;;
27367;SDS011;14839;48.106;11.618;2024-01-30T05:53:13;2.73;;;0.83;;
27367;SDS011;14839;48.106;11.618;2024-01-30T05:55:38;1.23;;;0.57;;
27367;SDS011;14839;48.106;11.618;2024-01-30T05:58:04;2.23;;;1.53;;
27367;SDS011;14839;48.106;11.618;2024-01-30T06:00:29;1.00;;;0.57;;
27367;SDS011;14839;48.106;11.618;2024-01-30T06:02:55;0.67;;;0.43;;
27367;SDS011;14839;48.106;11.618;2024-01-30T06:05:20;1.23;;;0.50;;
27367;SDS011;14839;48.106;11.618;2024-01-30T06:07:46;3.70;;;1.17;;
27367;SDS011;14839;48.106;11.618;2024-01-30T06:10:12;1.73;;;0.90;;
27367;SDS011;14839;48.106;11.618;2024-01-30T06:12:37;1.67;;;0.97;;
27367;SDS011;14839;48.106;11.618;2024-01-30T06:15:03;0.80;;;0.47;;
27367;SDS011;14839;48.106;11.618;2024-01-30T06:17:29;2.20;;;0.57;;
27367;SDS011;14839;48.106;11.618;2024-01-30T06:19:55;5.70;;;1.10;;
27367;SDS011;14839;48.106;11.618;2024-01-30T06:22:22;1.70;;;0.90;;
27367;SDS011;14839;48.106;11.618;2024-01-30T06:24:48;1.80;;;0.80;;
27367;SDS011;14839;48.106;11.618;2024-01-30T06:27:14;7.77;;;1.20;;
27367;SDS011;14839;48.106;11.618;2024-01-30T06:29:40;2.13;;;1.07;;
27367;SDS011;14839;48.106;11.618;2024-01-30T06:32:07;1.10;;;0.93;;
27367;SDS011;14839;48.106;11.618;2024-01-30T06:34:33;2.73;;;0.97;;
27367;SDS011;14839;48.106;11.618;2024-01-30T06:36:59;1.23;;;0.60;;
27367;SDS011;14839;48.106;11.618;2024-01-30T06:39:24;0.50;;;0.47;;
27367;SDS011;14839;48.106;11.618;2024-01-30T06:41:51;1.17;;;0.53;;
27367;SDS011;14839;48.106;11.618;2024-01-30T06:44:16;0.27;;;0.20;;
27367;SDS011;14839;48.106;11.618;2024-01-30T06:46:45;0.57;;;0.53;;
27367;SDS011;14839;48.106;11.618;2024-01-30T06:49:10;2.53;;;0.40;;
27367;SDS011;14839;48.106;11.618;2024-01-30T06:51:36;2.07;;;0.97;;
27367;SDS011;14839;48.106;11.618;2024-01-30T06:54:02;0.93;;;0.60;;
27367;SDS011;14839;48.106;11.618;2024-01-30T06:56:27;1.47;;;0.70;;
27367;SDS011;14839;48.106;11.618;2024-01-30T06:58:53;0.90;;;0.73;;
27367;SDS011;14839;48.106;11.618;2024-01-30T07:01:19;1.40;;;1.10;;
27367;SDS011;14839;48.106;11.618;2024-01-30T07:03:44;1.40;;;0.70;;
27367;SDS011;14839;48.106;11.618;2024-01-30T07:06:10;1.13;;;0.80;;
27367;SDS011;14839;48.106;11.618;2024-01-30T07:08:36;2.20;;;0.80;;
27367;SDS011;14839;48.106;11.618;2024-01-30T07:11:05;4.60;;;0.43;;
27367;SDS011;14839;48.106;11.618;2024-01-30T07:13:34;2.87;;;1.10;;
27367;SDS011;14839;48.106;11.618;2024-01-30T07:16:00;6.30;;;1.10;;
27367;SDS011;14839;48.106;11.618;2024-01-30T07:18:25;1.97;;;0.73;;
27367;SDS011;14839;48.106;11.618;2024-01-30T07:20:51;1.70;;;0.77;;
27367;SDS011;14839;48.106;11.618;2024-01-30T07:23:17;1.50;;;0.73;;
27367;SDS011;14839;48.106;11.618;2024-01-30T07:25:45;2.33;;;0.67;;
27367;SDS011;14839;48.106;11.618;2024-01-30T07:28:13;2.47;;;1.00;;
27367;SDS011;14839;48.106;11.618;2024-01-30T07:30:41;1.83;;;1.03;;
27367;SDS011;14839;48.106;11.618;2024-01-30T07:33:07;1.20;;;0.93;;
27367;SDS011;14839;48.106;11.618;2024-01-30T07:35:33;2.17;;;1.07;;
27367;SDS011;14839;48.106;11.618;2024-01-30T07:37:59;0.67;;;0.67;;
27367;SDS011;14839;48.106;11.618;2024-01-30T07:40:25;1.93;;;0.77;;
27367;SDS011;14839;48.106;11.618;2024-01-30T07:42:50;5.63;;;1.07;;
27367;SDS011;14839;48.106;11.618;2024-01-30T07:45:18;1.80;;;0.80;;
27367;SDS011;14839;48.106;11.618;2024-01-30T07:47:48;2.47;;;1.47;;
27367;SDS011;14839;48.106;11.618;2024-01-30T07:50:14;7.17;;;1.43;;
27367;SDS011;14839;48.106;11.618;2024-01-30T07:52:39;1.30;;;1.03;;
27367;SDS011;14839;48.106;11.618;2024-01-30T07:55:05;2.50;;;0.60;;
27367;SDS011;14839;48.106;11.618;2024-01-30T07:57:32;1.40;;;0.93;;
27367;SDS011;14839;48.106;11.618;2024-01-30T07:59:59;0.80;;;0.60;;
27367;SDS011;14839;48.106;11.618;2024-01-30T08:02:25;2.43;;;0.83;;
27367;SDS011;14839;48.106;11.618;2024-01-30T08:04:50;1.13;;;0.83;;
27367;SDS011;14839;48.106;11.618;2024-01-30T08:07:16;3.07;;;1.27;;
27367;SDS011;14839;48.106;11.618;2024-01-30T08:09:42;2.57;;;1.00;;
27367;SDS011;14839;48.106;11.618;2024-01-30T08:12:09;7.73;;;1.10;;
27367;SDS011;14839;48.106;11.618;2024-01-30T08:14:34;1.67;;;0.87;;
27367;SDS011;14839;48.106;11.618;2024-01-30T08:17:00;1.00;;;0.67;;
27367;SDS011;14839;48.106;11.618;2024-01-30T08:19:25;3.90;;;1.37;;
27367;SDS011;14839;48.106;11.618;2024-01-30T08:21:51;2.30;;;0.73;;
27367;SDS011;14839;48.106;11.618;2024-01-30T08:24:16;1.63;;;1.10;;
27367;SDS011;14839;48.106;11.618;2024-01-30T08:26:42;2.60;;;1.20;;
27367;SDS011;14839;48.106;11.618;2024-01-30T08:29:08;2.60;;;1.07;;
27367;SDS011;14839;48.106;11.618;2024-01-30T08:31:33;2.90;;;1.03;;
27367;SDS011;14839;48.106;11.618;2024-01-30T08:33:59;1.93;;;0.90;;
27367;SDS011;14839;48.106;11.618;2024-01-30T08:36:24;5.20;;;1.33;;
27367;SDS011;14839;48.106;11.618;2024-01-30T08:38:50;26.93;;;7.93;;
27367;SDS011;14839;48.106;11.618;2024-01-30T08:41:16;7.73;;;4.00;;
27367;SDS011;14839;48.106;11.618;2024-01-30T08:43:41;8.07;;;4.53;;
27367;SDS011;14839;48.106;11.618;2024-01-30T08:46:07;4.80;;;3.03;;
27367;SDS011;14839;48.106;11.618;2024-01-30T08:48:33;3.50;;;1.30;;
27367;SDS011;14839;48.106;11.618;2024-01-30T08:50:58;2.30;;;1.30;;
27367;SDS011;14839;48.106;11.618;2024-01-30T08:53:24;2.40;;;1.60;;
27367;SDS011;14839;48.106;11.618;2024-01-30T08:55:49;5.97;;;1.20;;
27367;SDS011;14839;48.106;11.618;2024-01-30T08:58:15;1.67;;;1.13;;
27367;SDS011;14839;48.106;11.618;2024-01-30T09:00:43;2.73;;;1.30;;
27367;SDS011;14839;48.106;11.618;2024-01-30T09:03:09;1.67;;;1.10;;
27367;SDS011;14839;48.106;11.618;2024-01-30T09:05:34;1.80;;;1.30;;
27367;SDS011;14839;48.106;11.618;2024-01-30T09:08:00;2.27;;;1.13;;
27367;SDS011;14839;48.106;11.618;2024-01-30T09:10:25;1.80;;;1.10;;
27367;SDS011;14839;48.106;11.618;2024-01-30T09:12:51;2.77;;;1.33;;
27367;SDS011;14839;48.106;11.618;2024-01-30T09:15:17;4.30;;;1.33;;
27367;SDS011;14839;48.106;11.618;2024-01-30T09:17:43;1.83;;;1.10;;
27367;SDS011;14839;48.106;11.618;2024-01-30T09:20:09;2.60;;;1.10;;
27367;SDS011;14839;48.106;11.618;2024-01-30T09:22:35;2.43;;;1.10;;
27367;SDS011;14839;48.106;11.618;2024-01-30T09:25:01;2.37;;;1.23;;
27367;SDS011;14839;48.106;11.618;2024-01-30T09:27:26;2.47;;;1.17;;
27367;SDS011;14839;48.106;11.618;2024-01-30T09:29:52;2.23;;;1.43;;
27367;SDS011;14839;48.106;11.618;2024-01-30T09:32:17;3.77;;;1.17;;
27367;SDS011;14839;48.106;11.618;2024-01-30T09:34:43;2.03;;;1.10;;
27367;SDS011;14839;48.106;11.618;2024-01-30T09:37:09;1.83;;;1.20;;
27367;SDS011;14839;48.106;11.618;2024-01-30T09:39:34;1.90;;;0.90;;
27367;SDS011;14839;48.106;11.618;2024-01-30T09:44:45;1.53;;;1.00;;
27367;SDS011;14839;48.106;11.618;2024-01-30T09:47:15;1.67;;;1.00;;
27367;SDS011;14839;48.106;11.618;2024-01-30T09:49:42;3.40;;;1.27;;
27367;SDS011;14839;48.106;11.618;2024-01-30T09:52:09;1.53;;;1.10;;
27367;SDS011;14839;48.106;11.618;2024-01-30T09:54:35;1.40;;;1.00;;
27367;SDS011;14839;48.106;11.618;2024-01-30T09:57:03;7.57;;;1.40;;
27367;SDS011;14839;48.106;11.618;2024-01-30T09:59:29;2.13;;;1.33;;
27367;SDS011;14839;48.106;11.618;2024-01-30T10:01:55;1.57;;;1.10;;
27367;SDS011;14839;48.106;11.618;2024-01-30T10:04:21;3.10;;;1.00;;
27367;SDS011;14839;48.106;11.618;2024-01-30T10:06:47;3.93;;;0.77;;
27367;SDS011;14839;48.106;11.618;2024-01-30T10:09:15;1.37;;;1.13;;
27367;SDS011;14839;48.106;11.618;2024-01-30T10:11:41;1.20;;;0.80;;
27367;SDS011;14839;48.106;11.618;2024-01-30T10:14:06;2.90;;;0.80;;
27367;SDS011;14839;48.106;11.618;2024-01-30T10:16:32;3.43;;;1.10;;
27367;SDS011;14839;48.106;11.618;2024-01-30T10:18:59;1.43;;;0.90;;
27367;SDS011;14839;48.106;11.618;2024-01-30T10:21:25;5.30;;;0.60;;
27367;SDS011;14839;48.106;11.618;2024-01-30T10:23:55;0.83;;;0.77;;
27367;SDS011;14839;48.106;11.618;2024-01-30T10:26:21;3.43;;;1.00;;
27367;SDS011;14839;48.106;11.618;2024-01-30T10:28:47;1.13;;;0.77;;
27367;SDS011;14839;48.106;11.618;2024-01-30T10:31:16;1.87;;;0.90;;
27367;SDS011;14839;48.106;11.618;2024-01-30T10:33:43;5.50;;;0.80;;
27367;SDS011;14839;48.106;11.618;2024-01-30T10:36:09;1.27;;;0.97;;
27367;SDS011;14839;48.106;11.618;2024-01-30T10:38:39;5.10;;;1.50;;
27367;SDS011;14839;48.106;11.618;2024-01-30T10:41:08;4.77;;;1.50;;
27367;SDS011;14839;48.106;11.618;2024-01-30T10:43:40;5.47;;;1.17;;
27367;SDS011;14839;48.106;11.618;2024-01-30T10:46:18;3.97;;;1.47;;
27367;SDS011;14839;48.106;11.618;2024-01-30T10:48:46;1.43;;;0.90;;
27367;SDS011;14839;48.106;11.618;2024-01-30T10:51:19;1.93;;;1.43;;
27367;SDS011;14839;48.106;11.618;2024-01-30T10:53:48;8.33;;;1.73;;
27367;SDS011;14839;48.106;11.618;2024-01-30T10:56:16;7.97;;;1.43;;
27367;SDS011;14839;48.106;11.618;2024-01-30T10:58:41;3.50;;;1.60;;
27367;SDS011;14839;48.106;11.618;2024-01-30T11:01:07;4.87;;;1.30;;
27367;SDS011;14839;48.106;11.618;2024-01-30T11:03:33;3.93;;;1.40;;
27367;SDS011;14839;48.106;11.618;2024-01-30T11:06:02;4.07;;;1.77;;
27367;SDS011;14839;48.106;11.618;2024-01-30T11:08:28;3.67;;;1.30;;
27367;SDS011;14839;48.106;11.618;2024-01-30T11:10:57;1.83;;;1.30;;
27367;SDS011;14839;48.106;11.618;2024-01-30T11:13:30;1.90;;;1.27;;
27367;SDS011;14839;48.106;11.618;2024-01-30T11:16:00;4.07;;;1.33;;
27367;SDS011;14839;48.106;11.618;2024-01-30T11:18:29;4.27;;;1.70;;
27367;SDS011;14839;48.106;11.618;2024-01-30T11:20:56;6.03;;;1.43;;
27367;SDS011;14839;48.106;11.618;2024-01-30T11:23:23;1.63;;;1.50;;
27367;SDS011;14839;48.106;11.618;2024-01-30T11:25:52;2.63;;;1.33;;
27367;SDS011;14839;48.106;11.618;2024-01-30T11:28:18;4.10;;;1.40;;
27367;SDS011;14839;48.106;11.618;2024-01-30T11:30:45;4.93;;;1.80;;
27367;SDS011;14839;48.106;11.618;2024-01-30T11:33:12;3.73;;;1.03;;
27367;SDS011;14839;48.106;11.618;2024-01-30T11:35:43;1.57;;;1.17;;
27367;SDS011;14839;48.106;11.618;2024-01-30T11:38:13;1.93;;;0.90;;
27367;SDS011;14839;48.106;11.618;2024-01-30T11:40:39;2.07;;;1.20;;
27367;SDS011;14839;48.106;11.618;2024-01-30T11:43:06;2.63;;;1.13;;
27367;SDS011;14839;48.106;11.618;2024-01-30T11:45:33;4.13;;;1.30;;
27367;SDS011;14839;48.106;11.618;2024-01-30T11:47:59;4.30;;;1.27;;
27367;SDS011;14839;48.106;11.618;2024-01-30T11:50:28;3.80;;;1.23;;
27367;SDS011;14839;48.106;11.618;2024-01-30T11:52:54;1.80;;;1.10;;
27367;SDS011;14839;48.106;11.618;2024-01-30T11:55:20;3.50;;;1.50;;
27367;SDS011;14839;48.106;11.618;2024-01-30T11:57:46;5.20;;;1.43;;
27367;SDS011;14839;48.106;11.618;2024-01-30T12:00:15;5.50;;;1.33;;
27367;SDS011;14839;48.106;11.618;2024-01-30T12:02:42;3.40;;;1.23;;
27367;SDS011;14839;48.106;11.618;2024-01-30T12:05:08;1.87;;;1.40;;
27367;SDS011;14839;48.106;11.618;2024-01-30T12:07:34;8.60;;;1.23;;
27367;SDS011;14839;48.106;11.618;2024-01-30T12:10:01;3.77;;;1.00;;
27367;SDS011;14839;48.106;11.618;2024-01-30T12:12:27;2.30;;;1.10;;
27367;SDS011;14839;48.106;11.618;2024-01-30T12:14:54;9.33;;;1.30;;
27367;SDS011;14839;48.106;11.618;2024-01-30T12:17:30;5.63;;;1.00;;
27367;SDS011;14839;48.106;11.618;2024-01-30T12:20:13;2.80;;;1.20;;
27367;SDS011;14839;48.106;11.618;2024-01-30T12:22:40;2.00;;;1.40;;
27367;SDS011;14839;48.106;11.618;2024-01-30T12:25:08;3.77;;;1.07;;
27367;SDS011;14839;48.106;11.618;2024-01-30T12:27:34;2.23;;;1.07;;
27367;SDS011;14839;48.106;11.618;2024-01-30T12:30:00;2.47;;;1.00;;
27367;SDS011;14839;48.106;11.618;2024-01-30T12:32:26;2.60;;;1.27;;
27367;SDS011;14839;48.106;11.618;2024-01-30T12:34:56;2.37;;;1.17;;
27367;SDS011;14839;48.106;11.618;2024-01-30T12:37:22;4.90;;;1.20;;
27367;SDS011;14839;48.106;11.618;2024-01-30T12:39:49;1.93;;;1.13;;
27367;SDS011;14839;48.106;11.618;2024-01-30T12:42:17;1.63;;;1.10;;
27367;SDS011;14839;48.106;11.618;2024-01-30T12:44:43;2.20;;;0.70;;
27367;SDS011;14839;48.106;11.618;2024-01-30T12:47:09;1.40;;;0.80;;
27367;SDS011;14839;48.106;11.618;2024-01-30T12:49:35;1.90;;;1.10;;
27367;SDS011;14839;48.106;11.618;2024-01-30T12:52:01;1.67;;;0.93;;
27367;SDS011;14839;48.106;11.618;2024-01-30T12:54:26;1.70;;;1.20;;
27367;SDS011;14839;48.106;11.618;2024-01-30T12:56:52;2.03;;;1.27;;
27367;SDS011;14839;48.106;11.618;2024-01-30T12:59:18;1.50;;;1.03;;
27367;SDS011;14839;48.106;11.618;2024-01-30T13:01:43;2.23;;;1.03;;
27367;SDS011;14839;48.106;11.618;2024-01-30T13:04:09;5.57;;;1.13;;
27367;SDS011;14839;48.106;11.618;2024-01-30T13:06:35;5.50;;;1.13;;
27367;SDS011;14839;48.106;11.618;2024-01-30T13:09:00;2.47;;;1.13;;
27367;SDS011;14839;48.106;11.618;2024-01-30T13:11:26;3.60;;;1.00;;
27367;SDS011;14839;48.106;11.618;2024-01-30T13:13:51;1.87;;;1.33;;
27367;SDS011;14839;48.106;11.618;2024-01-30T13:16:17;3.00;;;1.03;;
27367;SDS011;14839;48.106;11.618;2024-01-30T13:18:43;2.77;;;1.03;;
27367;SDS011;14839;48.106;11.618;2024-01-30T13:21:09;2.67;;;1.20;;
27367;SDS011;14839;48.106;11.618;2024-01-30T13:23:35;6.77;;;1.20;;
27367;SDS011;14839;48.106;11.618;2024-01-30T13:26:00;2.97;;;1.00;;
27367;SDS011;14839;48.106;11.618;2024-01-30T13:28:27;1.87;;;0.93;;
27367;SDS011;14839;48.106;11.618;2024-01-30T13:30:53;2.90;;;0.97;;
27367;SDS011;14839;48.106;11.618;2024-01-30T13:33:18;3.13;;;0.90;;
27367;SDS011;14839;48.106;11.618;2024-01-30T13:35:44;6.03;;;0.90;;
27367;SDS011;14839;48.106;11.618;2024-01-30T13:38:10;4.37;;;1.10;;
27367;SDS011;14839;48.106;11.618;2024-01-30T13:40:35;1.47;;;1.00;;
27367;SDS011;14839;48.106;11.618;2024-01-30T13:43:01;6.93;;;1.37;;
27367;SDS011;14839;48.106;11.618;2024-01-30T13:45:26;1.40;;;0.70;;
27367;SDS011;14839;48.106;11.618;2024-01-30T13:47:52;2.67;;;1.13;;
27367;SDS011;14839;48.106;11.618;2024-01-30T13:50:18;2.63;;;1.03;;
27367;SDS011;14839;48.106;11.618;2024-01-30T13:52:43;1.07;;;0.80;;
27367;SDS011;14839;48.106;11.618;2024-01-30T13:55:09;1.43;;;0.90;;
27367;SDS011;14839;48.106;11.618;2024-01-30T13:57:35;3.67;;;1.07;;
27367;SDS011;14839;48.106;11.618;2024-01-30T14:00:02;1.50;;;1.00;;
27367;SDS011;14839;48.106;11.618;2024-01-30T14:02:31;3.53;;;0.93;;
27367;SDS011;14839;48.106;11.618;2024-01-30T14:04:57;2.87;;;1.10;;
27367;SDS011;14839;48.106;11.618;2024-01-30T14:07:23;3.40;;;0.70;;
27367;SDS011;14839;48.106;11.618;2024-01-30T14:09:48;4.23;;;0.90;;
27367;SDS011;14839;48.106;11.618;2024-01-30T14:12:14;2.73;;;1.10;;
27367;SDS011;14839;48.106;11.618;2024-01-30T14:14:40;2.93;;;1.10;;
27367;SDS011;14839;48.106;11.618;2024-01-30T14:17:06;0.87;;;0.70;;
27367;SDS011;14839;48.106;11.618;2024-01-30T14:19:32;1.80;;;1.00;;
27367;SDS011;14839;48.106;11.618;2024-01-30T14:21:58;7.37;;;1.10;;
27367;SDS011;14839;48.106;11.618;2024-01-30T14:24:24;3.53;;;1.10;;
27367;SDS011;14839;48.106;11.618;2024-01-30T14:26:49;2.57;;;0.90;;
27367;SDS011;14839;48.106;11.618;2024-01-30T14:29:15;4.50;;;0.93;;
27367;SDS011;14839;48.106;11.618;2024-01-30T14:31:41;1.80;;;1.03;;
27367;SDS011;14839;48.106;11.618;2024-01-30T14:34:06;3.37;;;1.00;;
27367;SDS011;14839;48.106;11.618;2024-01-30T14:36:33;4.30;;;0.80;;
27367;SDS011;14839;48.106;11.618;2024-01-30T14:38:59;4.33;;;1.47;;
27367;SDS011;14839;48.106;11.618;2024-01-30T14:41:24;2.13;;;0.97;;
27367;SDS011;14839;48.106;11.618;2024-01-30T14:43:50;4.93;;;1.20;;
27367;SDS011;14839;48.106;11.618;2024-01-30T14:46:15;2.73;;;1.17;;
27367;SDS011;14839;48.106;11.618;2024-01-30T14:48:41;2.70;;;0.80;;
27367;SDS011;14839;48.106;11.618;2024-01-30T14:51:08;1.80;;;1.20;;
27367;SDS011;14839;48.106;11.618;2024-01-30T14:53:33;3.53;;;0.90;;
27367;SDS011;14839;48.106;11.618;2024-01-30T14:55:59;4.63;;;1.20;;
27367;SDS011;14839;48.106;11.618;2024-01-30T14:58:25;10.20;;;1.80;;
27367;SDS011;14839;48.106;11.618;2024-01-30T15:00:50;2.63;;;1.07;;
27367;SDS011;14839;48.106;11.618;2024-01-30T15:03:16;2.57;;;1.30;;
27367;SDS011;14839;48.106;11.618;2024-01-30T15:05:41;4.83;;;1.53;;
27367;SDS011;14839;48.106;11.618;2024-01-30T15:08:07;3.70;;;1.50;;
27367;SDS011;14839;48.106;11.618;2024-01-30T15:10:33;3.00;;;1.90;;
27367;SDS011;14839;48.106;11.618;2024-01-30T15:12:58;9.97;;;2.10;;
27367;SDS011;14839;48.106;11.618;2024-01-30T15:15:24;8.37;;;1.90;;
27367;SDS011;14839;48.106;11.618;2024-01-30T15:17:49;11.53;;;2.07;;
27367;SDS011;14839;48.106;11.618;2024-01-30T15:20:15;7.00;;;1.40;;
27367;SDS011;14839;48.106;11.618;2024-01-30T15:22:42;5.43;;;1.40;;
27367;SDS011;14839;48.106;11.618;2024-01-30T15:25:09;4.40;;;1.83;;
27367;SDS011;14839;48.106;11.618;2024-01-30T15:27:35;5.83;;;1.40;;
27367;SDS011;14839;48.106;11.618;2024-01-30T15:30:01;4.57;;;1.80;;
27367;SDS011;14839;48.106;11.618;2024-01-30T15:32:27;4.03;;;1.53;;
27367;SDS011;14839;48.106;11.618;2024-01-30T15:34:53;3.60;;;1.63;;
27367;SDS011;14839;48.106;11.618;2024-01-30T15:37:19;7.07;;;1.47;;
27367;SDS011;14839;48.106;11.618;2024-01-30T15:39:45;4.77;;;1.20;;
27367;SDS011;14839;48.106;11.618;2024-01-30T15:42:10;6.37;;;1.90;;
27367;SDS011;14839;48.106;11.618;2024-01-30T15:44:36;5.90;;;1.67;;
27367;SDS011;14839;48.106;11.618;2024-01-30T15:47:01;3.17;;;1.47;;
27367;SDS011;14839;48.106;11.618;2024-01-30T15:49:27;3.70;;;1.47;;
27367;SDS011;14839;48.106;11.618;2024-01-30T15:51:53;8.27;;;1.90;;
27367;SDS011;14839;48.106;11.618;2024-01-30T15:54:18;7.73;;;1.87;;
27367;SDS011;14839;48.106;11.618;2024-01-30T15:56:45;3.53;;;1.40;;
27367;SDS011;14839;48.106;11.618;2024-01-30T15:59:11;4.33;;;1.13;;
27367;SDS011;14839;48.106;11.618;2024-01-30T16:01:36;2.87;;;1.20;;
27367;SDS011;14839;48.106;11.618;2024-01-30T16:04:02;10.57;;;1.37;;
27367;SDS011;14839;48.106;11.618;2024-01-30T16:06:27;2.97;;;1.30;;
27367;SDS011;14839;48.106;11.618;2024-01-30T16:08:53;8.20;;;1.30;;
27367;SDS011;14839;48.106;11.618;2024-01-30T16:11:18;8.87;;;1.60;;
27367;SDS011;14839;48.106;11.618;2024-01-30T16:13:44;9.03;;;1.77;;
27367;SDS011;14839;48.106;11.618;2024-01-30T16:16:09;9.50;;;2.03;;
27367;SDS011;14839;48.106;11.618;2024-01-30T16:18:36;3.13;;;1.50;;
27367;SDS011;14839;48.106;11.618;2024-01-30T16:21:01;5.63;;;1.93;;
27367;SDS011;14839;48.106;11.618;2024-01-30T16:23:27;1.83;;;1.30;;
27367;SDS011;14839;48.106;11.618;2024-01-30T16:25:53;5.70;;;2.00;;
27367;SDS011;14839;48.106;11.618;2024-01-30T16:28:19;3.97;;;1.60;;
27367;SDS011;14839;48.106;11.618;2024-01-30T16:30:48;8.13;;;1.60;;
27367;SDS011;14839;48.106;11.618;2024-01-30T16:33:14;7.23;;;2.43;;
27367;SDS011;14839;48.106;11.618;2024-01-30T16:35:39;11.40;;;2.27;;
27367;SDS011;14839;48.106;11.618;2024-01-30T16:38:06;4.57;;;1.90;;
27367;SDS011;14839;48.106;11.618;2024-01-30T16:40:32;8.20;;;2.03;;
27367;SDS011;14839;48.106;11.618;2024-01-30T16:42:58;2.43;;;1.50;;
27367;SDS011;14839;48.106;11.618;2024-01-30T16:45:24;3.20;;;1.30;;
27367;SDS011;14839;48.106;11.618;2024-01-30T16:47:50;7.80;;;1.90;;
27367;SDS011;14839;48.106;11.618;2024-01-30T16:50:15;9.90;;;1.57;;
27367;SDS011;14839;48.106;11.618;2024-01-30T16:52:41;4.90;;;1.80;;
27367;SDS011;14839;48.106;11.618;2024-01-30T16:55:07;3.50;;;1.63;;
27367;SDS011;14839;48.106;11.618;2024-01-30T16:57:33;6.70;;;2.10;;
27367;SDS011;14839;48.106;11.618;2024-01-30T16:59:58;8.13;;;2.07;;
27367;SDS011;14839;48.106;11.618;2024-01-30T17:02:24;4.67;;;1.60;;
27367;SDS011;14839;48.106;11.618;2024-01-30T17:04:51;5.83;;;2.40;;
27367;SDS011;14839;48.106;11.618;2024-01-30T17:07:16;3.87;;;1.83;;
27367;SDS011;14839;48.106;11.618;2024-01-30T17:09:42;5.57;;;1.73;;
27367;SDS011;14839;48.106;11.618;2024-01-30T17:12:07;12.03;;;2.27;;
27367;SDS011;14839;48.106;11.618;2024-01-30T17:14:33;3.23;;;1.60;;
27367;SDS011;14839;48.106;11.618;2024-01-30T17:17:04;1.93;;;1.33;;
27367;SDS011;14839;48.106;11.618;2024-01-30T17:19:29;2.97;;;1.70;;
27367;SDS011;14839;48.106;11.618;2024-01-30T17:21:55;7.83;;;1.80;;
27367;SDS011;14839;48.106;11.618;2024-01-30T17:24:20;6.30;;;1.23;;
27367;SDS011;14839;48.106;11.618;2024-01-30T17:26:47;4.53;;;1.90;;
27367;SDS011;14839;48.106;11.618;2024-01-30T17:29:14;5.67;;;1.73;;
27367;SDS011;14839;48.106;11.618;2024-01-30T17:31:40;4.97;;;2.00;;
27367;SDS011;14839;48.106;11.618;2024-01-30T17:34:09;2.00;;;1.60;;
27367;SDS011;14839;48.106;11.618;2024-01-30T17:36:35;9.73;;;2.33;;
27367;SDS011;14839;48.106;11.618;2024-01-30T17:39:00;2.83;;;1.80;;
27367;SDS011;14839;48.106;11.618;2024-01-30T17:41:26;7.40;;;1.83;;
27367;SDS011;14839;48.106;11.618;2024-01-30T17:43:51;3.07;;;1.53;;
27367;SDS011;14839;48.106;11.618;2024-01-30T17:46:17;4.13;;;1.53;;
27367;SDS011;14839;48.106;11.618;2024-01-30T17:48:43;13.23;;;1.80;;
27367;SDS011;14839;48.106;11.618;2024-01-30T17:51:08;3.80;;;2.00;;
27367;SDS011;14839;48.106;11.618;2024-01-30T17:53:34;10.93;;;2.53;;
27367;SDS011;14839;48.106;11.618;2024-01-30T17:56:00;5.63;;;2.90;;
27367;SDS011;14839;48.106;11.618;2024-01-30T17:58:30;5.03;;;2.67;;
27367;SDS011;14839;48.106;11.618;2024-01-30T18:00:56;4.40;;;1.90;;
27367;SDS011;14839;48.106;11.618;2024-01-30T18:03:22;14.77;;;2.97;;
27367;SDS011;14839;48.106;11.618;2024-01-30T18:05:48;11.33;;;2.40;;
27367;SDS011;14839;48.106;11.618;2024-01-30T18:08:13;6.10;;;2.37;;
27367;SDS011;14839;48.106;11.618;2024-01-30T18:10:39;6.23;;;2.03;;
27367;SDS011;14839;48.106;11.618;2024-01-30T18:13:05;2.93;;;1.83;;
27367;SDS011;14839;48.106;11.618;2024-01-30T18:15:30;4.50;;;2.23;;
27367;SDS011;14839;48.106;11.618;2024-01-30T18:17:56;7.73;;;2.00;;
27367;SDS011;14839;48.106;11.618;2024-01-30T18:20:22;5.13;;;1.70;;
27367;SDS011;14839;48.106;11.618;2024-01-30T18:22:47;5.43;;;2.43;;
27367;SDS011;14839;48.106;11.618;2024-01-30T18:25:13;4.50;;;2.57;;
27367;SDS011;14839;48.106;11.618;2024-01-30T18:27:39;5.80;;;2.77;;
27367;SDS011;14839;48.106;11.618;2024-01-30T18:30:04;5.23;;;2.30;;
27367;SDS011;14839;48.106;11.618;2024-01-30T18:32:30;3.37;;;1.90;;
27367;SDS011;14839;48.106;11.618;2024-01-30T18:34:56;5.60;;;2.43;;
27367;SDS011;14839;48.106;11.618;2024-01-30T18:37:22;11.47;;;2.63;;
27367;SDS011;14839;48.106;11.618;2024-01-30T18:39:47;15.27;;;2.87;;
27367;SDS011;14839;48.106;11.618;2024-01-30T18:42:13;4.50;;;2.57;;
27367;SDS011;14839;48.106;11.618;2024-01-30T18:44:39;6.97;;;3.20;;
27367;SDS011;14839;48.106;11.618;2024-01-30T18:47:04;11.67;;;3.27;;
27367;SDS011;14839;48.106;11.618;2024-01-30T18:49:30;17.37;;;3.20;;
27367;SDS011;14839;48.106;11.618;2024-01-30T18:51:55;5.40;;;2.77;;
27367;SDS011;14839;48.106;11.618;2024-01-30T18:54:25;6.73;;;3.13;;
27367;SDS011;14839;48.106;11.618;2024-01-30T18:56:51;9.73;;;4.23;;
27367;SDS011;14839;48.106;11.618;2024-01-30T18:59:17;8.33;;;4.30;;
27367;SDS011;14839;48.106;11.618;2024-01-30T19:01:46;6.20;;;4.13;;
27367;SDS011;14839;48.106;11.618;2024-01-30T19:04:11;11.23;;;5.80;;
27367;SDS011;14839;48.106;11.618;2024-01-30T19:06:38;7.53;;;4.80;;
27367;SDS011;14839;48.106;11.618;2024-01-30T19:09:03;10.67;;;4.70;;
27367;SDS011;14839;48.106;11.618;2024-01-30T19:11:33;9.07;;;4.17;;
27367;SDS011;14839;48.106;11.618;2024-01-30T19:14:01;10.67;;;4.83;;
27367;SDS011;14839;48.106;11.618;2024-01-30T19:16:27;6.60;;;3.30;;
27367;SDS011;14839;48.106;11.618;2024-01-30T19:18:53;5.43;;;3.53;;
27367;SDS011;14839;48.106;11.618;2024-01-30T19:21:18;6.73;;;3.40;;
27367;SDS011;14839;48.106;11.618;2024-01-30T19:23:44;22.00;;;5.23;;
27367;SDS011;14839;48.106;11.618;2024-01-30T19:26:09;23.77;;;7.73;;
27367;SDS011;14839;48.106;11.618;2024-01-30T19:28:35;11.80;;;5.87;;
27367;SDS011;14839;48.106;11.618;2024-01-30T19:31:01;8.70;;;4.77;;